Time;durP1;ratioP1;P1;durP2;ratioP2;P2;SDS_P1;SDS_P2;PMS_P1;PMS_P2;Temp;Humidity;BMP_temperature;BMP_pressure;BME280_temperature;BME280_humidity;BME280_pressure;Samples;Min_cycle;Max_cycle;Signal;HPM_P1;HPM_P2
2020/12/06 00:01:35;;;;;;;59.17;32.47;;;;;;;;;;4819519;29;20309;-67
2020/12/06 00:04:08;;;;;;;62.72;34.30;;;;;;;;;;4820809;29;20047;-67
2020/12/06 00:06:35;;;;;;;65.10;35.20;;;;;;;;;;4819656;29;20035;-67
2020/12/06 00:09:01;;;;;;;61.50;34.25;;;;;;;;;;4820096;29;20050;-67
2020/12/06 00:11:27;;;;;;;60.13;34.25;;;;;;;;;;4820184;29;20065;-67
2020/12/06 00:13:53;;;;;;;61.90;32.80;;;;;;;;;;4821295;29;20042;-67
2020/12/06 00:16:20;;;;;;;57.40;31.00;;;;;;;;;;4816907;29;20560;-67
2020/12/06 00:18:48;;;;;;;59.10;32.93;;;;;;;;;;4820398;29;20051;-67
2020/12/06 00:21:16;;;;;;;63.22;33.08;;;;;;;;;;4819127;29;21005;-67
2020/12/06 00:23:43;;;;;;;58.13;32.72;;;;;;;;;;4818314;29;20042;-67
2020/12/06 00:26:09;;;;;;;61.97;33.13;;;;;;;;;;4818325;29;20399;-67
2020/12/06 00:28:36;;;;;;;60.78;33.15;;;;;;;;;;4819406;29;20307;-67
2020/12/06 00:31:02;;;;;;;57.10;33.22;;;;;;;;;;4814581;29;20486;-67
2020/12/06 00:33:28;;;;;;;58.90;33.05;;;;;;;;;;4812698;29;20753;-67
2020/12/06 00:35:55;;;;;;;56.42;32.60;;;;;;;;;;4814175;29;20107;-67
2020/12/06 00:38:21;;;;;;;56.47;33.05;;;;;;;;;;4815049;29;20127;-67
2020/12/06 00:40:47;;;;;;;60.00;30.92;;;;;;;;;;4814817;29;20055;-67
2020/12/06 00:43:13;;;;;;;55.65;31.33;;;;;;;;;;4818459;29;20073;-67
2020/12/06 00:45:39;;;;;;;56.38;30.45;;;;;;;;;;4819842;29;20035;-67
2020/12/06 00:48:06;;;;;;;54.90;29.95;;;;;;;;;;4820041;29;20479;-67
2020/12/06 00:50:32;;;;;;;61.42;31.02;;;;;;;;;;4819087;29;21913;-67
2020/12/06 00:53:01;;;;;;;55.28;30.75;;;;;;;;;;4815469;29;20042;-67
2020/12/06 00:55:27;;;;;;;55.10;30.83;;;;;;;;;;4817754;29;20047;-67
2020/12/06 00:57:55;;;;;;;50.00;29.10;;;;;;;;;;4819014;29;20144;-67
2020/12/06 01:00:21;;;;;;;55.38;30.35;;;;;;;;;;4817680;29;20596;-67
2020/12/06 01:02:47;;;;;;;52.08;29.88;;;;;;;;;;4818928;29;20511;-68
2020/12/06 01:05:13;;;;;;;51.00;30.30;;;;;;;;;;4819279;29;20038;-67
2020/12/06 01:07:40;;;;;;;57.45;31.10;;;;;;;;;;4819737;29;20046;-67
2020/12/06 01:10:07;;;;;;;52.60;29.88;;;;;;;;;;4819137;29;20038;-68
2020/12/06 01:12:34;;;;;;;;;;;;;;;;;;4820322;29;20094;-68
2020/12/06 01:15:00;;;;;;;54.05;28.35;;;;;;;;;;4817242;29;19928;-67
2020/12/06 01:17:27;;;;;;;48.75;28.83;;;;;;;;;;4819391;29;20115;-67
2020/12/06 01:19:53;;;;;;;51.97;27.58;;;;;;;;;;4819402;29;20764;-67
2020/12/06 01:22:19;;;;;;;46.42;27.35;;;;;;;;;;4816737;29;20214;-67
2020/12/06 01:24:45;;;;;;;52.33;27.98;;;;;;;;;;4818877;29;20118;-67
2020/12/06 01:27:12;;;;;;;53.83;28.83;;;;;;;;;;4818727;29;20050;-67
2020/12/06 01:29:38;;;;;;;56.30;29.17;;;;;;;;;;4819810;29;20121;-67
2020/12/06 01:32:04;;;;;;;57.05;29.17;;;;;;;;;;4817918;29;20058;-67
2020/12/06 01:34:30;;;;;;;53.45;29.48;;;;;;;;;;4819683;29;20046;-67
2020/12/06 01:36:57;;;;;;;58.33;30.55;;;;;;;;;;4819804;29;20061;-67
2020/12/06 01:39:23;;;;;;;60.75;29.73;;;;;;;;;;4817222;29;20060;-67
2020/12/06 01:41:52;;;;;;;56.50;31.27;;;;;;;;;;4817683;29;20047;-67
2020/12/06 01:44:19;;;;;;;59.35;29.38;;;;;;;;;;4819133;29;20045;-67
2020/12/06 01:46:48;;;;;;;54.20;30.65;;;;;;;;;;4819403;29;20046;-67
2020/12/06 01:49:14;;;;;;;54.85;28.85;;;;;;;;;;4818496;29;20125;-67
2020/12/06 01:51:42;;;;;;;;;;;;;;;;;;4818394;29;20050;-67
2020/12/06 01:54:08;;;;;;;53.80;29.52;;;;;;;;;;4817573;29;19932;-67
2020/12/06 01:56:34;;;;;;;51.47;29.67;;;;;;;;;;4817944;29;20415;-67
2020/12/06 01:59:01;;;;;;;57.88;29.27;;;;;;;;;;4818937;29;20558;-67
2020/12/06 02:01:27;;;;;;;54.58;29.15;;;;;;;;;;4818255;29;20043;-67
2020/12/06 02:03:54;;;;;;;54.97;28.67;;;;;;;;;;4817848;29;20686;-67
2020/12/06 02:06:20;;;;;;;51.10;26.85;;;;;;;;;;4819194;29;20495;-67
2020/12/06 02:08:48;;;;;;;42.27;21.73;;;;;;;;;;4817538;29;20121;-67
2020/12/06 02:11:27;;;;;;;57.00;28.63;;;;;;;;;;4819375;29;20046;-67
2020/12/06 02:13:53;;;;;;;49.85;28.30;;;;;;;;;;4819769;29;20057;-67
2020/12/06 02:16:19;;;;;;;52.47;28.92;;;;;;;;;;4818044;29;20039;-69
2020/12/06 02:18:45;;;;;;;52.50;27.70;;;;;;;;;;4818819;29;20069;-67
2020/12/06 02:21:12;;;;;;;48.42;27.33;;;;;;;;;;4819121;29;20049;-67
2020/12/06 02:23:39;;;;;;;49.70;27.15;;;;;;;;;;4819868;29;20069;-68
2020/12/06 02:26:05;;;;;;;49.83;27.70;;;;;;;;;;4819307;29;20054;-67
2020/12/06 02:28:31;;;;;;;48.80;26.15;;;;;;;;;;4818195;29;20787;-67
2020/12/06 02:30:57;;;;;;;54.08;25.92;;;;;;;;;;4818877;29;20060;-67
2020/12/06 02:33:23;;;;;;;51.75;25.83;;;;;;;;;;4818122;29;20046;-68
2020/12/06 02:35:50;;;;;;;56.42;27.27;;;;;;;;;;4818139;29;20047;-67
2020/12/06 02:38:16;;;;;;;60.92;26.95;;;;;;;;;;4817760;29;20452;-67
2020/12/06 02:40:42;;;;;;;51.90;25.88;;;;;;;;;;4818650;29;20054;-67
2020/12/06 02:43:08;;;;;;;58.25;27.35;;;;;;;;;;4818240;29;20495;-68
2020/12/06 02:45:34;;;;;;;56.85;27.35;;;;;;;;;;4815887;29;20495;-67
2020/12/06 02:48:00;;;;;;;62.75;30.02;;;;;;;;;;4818680;29;20049;-67
2020/12/06 02:50:27;;;;;;;60.42;27.83;;;;;;;;;;4820665;29;20043;-67
2020/12/06 02:52:57;;;;;;;56.00;25.30;;;;;;;;;;4821421;29;20073;-67
2020/12/06 02:55:25;;;;;;;47.08;24.88;;;;;;;;;;4822418;29;20053;-67
2020/12/06 02:57:51;;;;;;;49.33;24.42;;;;;;;;;;4821611;29;20069;-67
2020/12/06 03:00:17;;;;;;;51.00;24.70;;;;;;;;;;4819386;29;20095;-67
2020/12/06 03:02:43;;;;;;;44.65;22.80;;;;;;;;;;4822670;29;20050;-67
2020/12/06 03:05:09;;;;;;;48.90;24.10;;;;;;;;;;4822414;29;20042;-67
2020/12/06 03:07:40;;;;;;;49.20;23.95;;;;;;;;;;4821727;29;20069;-67
2020/12/06 03:10:06;;;;;;;48.70;23.05;;;;;;;;;;4822039;29;20527;-67
2020/12/06 03:12:33;;;;;;;43.60;21.63;;;;;;;;;;4822263;29;20392;-67
2020/12/06 03:14:59;;;;;;;40.95;20.75;;;;;;;;;;4821205;29;20116;-67
2020/12/06 03:17:25;;;;;;;42.20;18.20;;;;;;;;;;4822104;29;20050;-67
2020/12/06 03:19:52;;;;;;;49.22;24.92;;;;;;;;;;4821598;29;20068;-68
2020/12/06 03:22:18;;;;;;;33.15;17.63;;;;;;;;;;4821970;29;20043;-67
2020/12/06 03:24:44;;;;;;;39.40;20.17;;;;;;;;;;4818875;29;20077;-68
2020/12/06 03:27:10;;;;;;;45.75;21.23;;;;;;;;;;4820584;29;20050;-67
2020/12/06 03:29:36;;;;;;;41.58;20.48;;;;;;;;;;4820275;29;20043;-67
2020/12/06 03:32:02;;;;;;;45.55;23.70;;;;;;;;;;4819403;29;20050;-67
2020/12/06 03:34:29;;;;;;;46.35;24.00;;;;;;;;;;4821112;29;20038;-67
2020/12/06 03:36:55;;;;;;;44.22;22.65;;;;;;;;;;4820812;29;20179;-67
2020/12/06 03:39:21;;;;;;;40.60;21.60;;;;;;;;;;4819092;29;20057;-67
2020/12/06 03:41:47;;;;;;;47.00;22.73;;;;;;;;;;4820608;29;20483;-67
2020/12/06 03:44:13;;;;;;;52.97;23.08;;;;;;;;;;4821022;29;20523;-67
2020/12/06 03:46:39;;;;;;;51.97;26.38;;;;;;;;;;4818751;29;20039;-67
2020/12/06 03:49:06;;;;;;;47.08;23.95;;;;;;;;;;4820561;29;20050;-67
2020/12/06 03:51:33;;;;;;;47.60;24.58;;;;;;;;;;4821382;29;20053;-67
2020/12/06 03:53:59;;;;;;;59.17;28.33;;;;;;;;;;4819196;29;20567;-67
2020/12/06 03:56:25;;;;;;;56.15;28.85;;;;;;;;;;4822199;29;20046;-67
2020/12/06 03:58:52;;;;;;;60.27;29.77;;;;;;;;;;4820673;29;20069;-68
2020/12/06 04:01:18;;;;;;;62.08;29.85;;;;;;;;;;4818086;29;20487;-67
2020/12/06 04:03:44;;;;;;;61.20;27.98;;;;;;;;;;4820414;29;20046;-67
2020/12/06 04:06:11;;;;;;;72.95;32.28;;;;;;;;;;4820253;29;20707;-67
2020/12/06 04:08:37;;;;;;;63.28;28.52;;;;;;;;;;4821758;29;20038;-67
2020/12/06 04:11:05;;;;;;;60.47;30.85;;;;;;;;;;4821260;29;20529;-67
2020/12/06 04:13:32;;;;;;;59.22;29.70;;;;;;;;;;4821180;29;20114;-66
2020/12/06 04:15:58;;;;;;;73.80;32.53;;;;;;;;;;4821241;29;20047;-67
2020/12/06 04:18:25;;;;;;;68.93;32.47;;;;;;;;;;4820994;29;20062;-67
2020/12/06 04:20:51;;;;;;;70.32;31.00;;;;;;;;;;4821240;29;20387;-67
2020/12/06 04:23:17;;;;;;;74.63;33.25;;;;;;;;;;4820156;29;20053;-67
2020/12/06 04:25:43;;;;;;;71.72;33.10;;;;;;;;;;4819525;29;20046;-67
2020/12/06 04:28:10;;;;;;;65.70;29.42;;;;;;;;;;4818603;29;20042;-67
2020/12/06 04:30:37;;;;;;;68.25;30.55;;;;;;;;;;4821576;29;20050;-67
2020/12/06 04:33:04;;;;;;;66.97;32.28;;;;;;;;;;4819853;29;20074;-67
2020/12/06 04:35:30;;;;;;;66.82;33.78;;;;;;;;;;4820879;29;20050;-67
2020/12/06 04:37:56;;;;;;;72.45;35.55;;;;;;;;;;4818398;29;20519;-67
2020/12/06 04:40:22;;;;;;;75.57;35.03;;;;;;;;;;4821812;29;20038;-67
2020/12/06 04:42:49;;;;;;;78.95;36.75;;;;;;;;;;4822377;29;20102;-68
2020/12/06 04:45:15;;;;;;;80.47;37.88;;;;;;;;;;4822163;29;20049;-67
2020/12/06 04:47:51;;;;;;;72.80;35.40;;;;;;;;;;4821416;29;20054;-67
2020/12/06 04:50:40;;;;;;;71.55;34.78;;;;;;;;;;4815818;29;20038;-67
2020/12/06 04:53:07;;;;;;;82.68;36.60;;;;;;;;;;4808806;29;20546;-67
2020/12/06 04:55:34;;;;;;;;;;;;;;;;;;4817395;29;20161;-67
2020/12/06 04:58:01;;;;;;;86.05;37.22;;;;;;;;;;4821068;29;20462;-67
2020/12/06 05:00:31;;;;;;;89.00;40.22;;;;;;;;;;4820342;29;20071;-67
2020/12/06 05:03:02;;;;;;;85.88;39.80;;;;;;;;;;4819988;29;20046;-67
2020/12/06 05:05:33;;;;;;;85.70;37.30;;;;;;;;;;4820645;29;20046;-67
2020/12/06 05:08:03;;;;;;;92.43;40.08;;;;;;;;;;4819672;29;20065;-67
2020/12/06 05:10:30;;;;;;;89.80;39.75;;;;;;;;;;4820391;29;20038;-67
2020/12/06 05:12:56;;;;;;;97.55;38.38;;;;;;;;;;4821184;29;20050;-69
2020/12/06 05:15:23;;;;;;;84.13;35.53;;;;;;;;;;4818724;29;20680;-67
2020/12/06 05:17:49;;;;;;;88.47;37.17;;;;;;;;;;4817795;29;20118;-67
2020/12/06 05:20:15;;;;;;;91.47;38.25;;;;;;;;;;4819888;29;20047;-67
2020/12/06 05:22:47;;;;;;;84.13;37.80;;;;;;;;;;4819341;29;20384;-67
2020/12/06 05:25:14;;;;;;;85.65;35.13;;;;;;;;;;4817794;29;20654;-67
2020/12/06 05:27:41;;;;;;;87.55;33.83;;;;;;;;;;4821652;29;20086;-67
2020/12/06 05:30:07;;;;;;;89.45;32.90;;;;;;;;;;4819646;29;20287;-67
2020/12/06 05:32:33;;;;;;;91.00;35.17;;;;;;;;;;4820344;29;20058;-67
2020/12/06 05:35:00;;;;;;;88.75;34.15;;;;;;;;;;4819693;29;20042;-67
2020/12/06 05:37:26;;;;;;;72.53;29.00;;;;;;;;;;4819646;29;20061;-67
2020/12/06 05:40:02;;;;;;;90.57;33.47;;;;;;;;;;4820609;29;20038;-67
2020/12/06 05:42:30;;;;;;;86.47;35.28;;;;;;;;;;4820135;29;20058;-67
2020/12/06 05:44:56;;;;;;;87.97;38.38;;;;;;;;;;4819250;29;20058;-67
2020/12/06 05:47:23;;;;;;;79.38;32.70;;;;;;;;;;4818547;29;20046;-67
2020/12/06 05:49:49;;;;;;;85.03;36.85;;;;;;;;;;4821245;29;20050;-67
2020/12/06 05:52:18;;;;;;;90.65;37.80;;;;;;;;;;4819530;29;20534;-67
2020/12/06 05:54:44;;;;;;;94.85;39.92;;;;;;;;;;4819644;29;20071;-67
2020/12/06 05:57:14;;;;;;;91.32;37.28;;;;;;;;;;4818794;29;20062;-67
2020/12/06 05:59:41;;;;;;;83.05;35.00;;;;;;;;;;4816278;29;20125;-66
2020/12/06 06:02:07;;;;;;;86.53;33.60;;;;;;;;;;4820483;29;20230;-67
2020/12/06 06:04:38;;;;;;;85.32;35.60;;;;;;;;;;4817282;29;20050;-68
2020/12/06 06:07:05;;;;;;;79.47;33.38;;;;;;;;;;4819163;29;20046;-67
2020/12/06 06:09:35;;;;;;;86.13;34.80;;;;;;;;;;4819017;29;21134;-67
2020/12/06 06:12:26;;;;;;;92.50;36.22;;;;;;;;;;4819524;29;20057;-67
2020/12/06 06:14:57;;;;;;;85.13;36.25;;;;;;;;;;4818958;29;20103;-68
2020/12/06 06:17:24;;;;;;;98.32;38.42;;;;;;;;;;4819469;29;20909;-68
2020/12/06 06:19:51;;;;;;;87.70;37.20;;;;;;;;;;4820395;29;22030;-68
2020/12/06 06:22:19;;;;;;;81.90;33.90;;;;;;;;;;4821934;29;20038;-68
2020/12/06 06:24:47;;;;;;;80.90;34.00;;;;;;;;;;4822840;29;20444;-68
2020/12/06 06:27:13;;;;;;;58.03;25.25;;;;;;;;;;4822927;29;20046;-68
2020/12/06 06:29:40;;;;;;;92.80;36.05;;;;;;;;;;4822602;29;20058;-68
2020/12/06 06:32:06;;;;;;;75.95;33.63;;;;;;;;;;4823071;29;20058;-68
2020/12/06 06:34:33;;;;;;;91.07;34.72;;;;;;;;;;4823596;29;20095;-67
2020/12/06 06:36:59;;;;;;;101.45;36.65;;;;;;;;;;4820344;29;20050;-68
2020/12/06 06:39:26;;;;;;;99.43;38.03;;;;;;;;;;4822380;29;20081;-68
2020/12/06 06:41:59;;;;;;;111.72;41.72;;;;;;;;;;4823120;29;20058;-68
2020/12/06 06:44:26;;;;;;;98.60;39.20;;;;;;;;;;4823105;29;20050;-68
2020/12/06 06:46:52;;;;;;;;;;;;;;;;;;4819740;29;20122;-68
2020/12/06 06:49:19;;;;;;;107.40;39.95;;;;;;;;;;4822127;29;19952;-68
2020/12/06 06:51:51;;;;;;;83.22;33.25;;;;;;;;;;4824239;29;20057;-68
2020/12/06 06:54:24;;;;;;;97.82;35.80;;;;;;;;;;4821898;29;20057;-68
2020/12/06 06:56:51;;;;;;;93.35;35.97;;;;;;;;;;4822654;29;20057;-68
2020/12/06 06:59:35;;;;;;;99.43;38.50;;;;;;;;;;4819732;29;20521;-68
2020/12/06 07:02:01;;;;;;;93.93;36.78;;;;;;;;;;4821955;29;20074;-68
2020/12/06 07:04:27;;;;;;;101.85;37.55;;;;;;;;;;4818458;29;20062;-67
2020/12/06 07:06:53;;;;;;;89.90;34.72;;;;;;;;;;4822068;29;20503;-68
2020/12/06 07:09:27;;;;;;;94.30;34.10;;;;;;;;;;4820791;29;21725;-67
2020/12/06 07:11:54;;;;;;;100.07;37.30;;;;;;;;;;4820970;29;20129;-68
2020/12/06 07:14:24;;;;;;;84.57;34.10;;;;;;;;;;4821470;29;20051;-68
2020/12/06 07:16:52;;;;;;;94.53;35.30;;;;;;;;;;4821767;29;20065;-68
2020/12/06 07:19:18;;;;;;;96.28;36.92;;;;;;;;;;4821432;29;20455;-68
2020/12/06 07:21:46;;;;;;;102.15;38.45;;;;;;;;;;4821485;29;20046;-67
2020/12/06 07:24:13;;;;;;;116.45;39.70;;;;;;;;;;4820683;29;20046;-67
2020/12/06 07:26:40;;;;;;;102.82;38.92;;;;;;;;;;4822926;29;20046;-67
2020/12/06 07:29:06;;;;;;;95.40;36.25;;;;;;;;;;4821725;29;20438;-68
2020/12/06 07:31:33;;;;;;;116.13;42.67;;;;;;;;;;4821423;29;20578;-68
2020/12/06 07:34:00;;;;;;;134.10;47.47;;;;;;;;;;4818145;29;20053;-68
2020/12/06 07:36:32;;;;;;;131.27;49.33;;;;;;;;;;4821123;29;20558;-68
2020/12/06 07:39:00;;;;;;;130.95;49.65;;;;;;;;;;4821518;29;20085;-68
2020/12/06 07:41:26;;;;;;;131.80;47.78;;;;;;;;;;4821536;29;20046;-68
2020/12/06 07:43:53;;;;;;;133.25;48.38;;;;;;;;;;4818239;29;20116;-68
2020/12/06 07:46:20;;;;;;;110.88;42.78;;;;;;;;;;4820017;29;20042;-68
2020/12/06 07:48:47;;;;;;;115.40;43.70;;;;;;;;;;4822169;29;20507;-68
2020/12/06 07:51:23;;;;;;;117.82;45.10;;;;;;;;;;4819967;29;20046;-68
2020/12/06 07:53:49;;;;;;;115.78;40.10;;;;;;;;;;4817111;29;20434;-68
2020/12/06 07:56:22;;;;;;;117.47;43.50;;;;;;;;;;4819679;29;20064;-68
2020/12/06 07:59:08;;;;;;;107.65;40.58;;;;;;;;;;4821393;29;20048;-68
2020/12/06 08:01:35;;;;;;;109.75;39.40;;;;;;;;;;4818581;29;20115;-68
2020/12/06 08:04:19;;;;;;;115.35;40.53;;;;;;;;;;4822669;29;20133;-68
2020/12/06 08:06:47;;;;;;;111.70;41.15;;;;;;;;;;4821246;29;20046;-68
2020/12/06 08:09:13;;;;;;;115.63;41.65;;;;;;;;;;4822828;29;20503;-68
2020/12/06 08:11:43;;;;;;;91.10;38.13;;;;;;;;;;4818807;29;20043;-68
2020/12/06 08:14:09;;;;;;;109.97;40.88;;;;;;;;;;4823612;29;20512;-68
2020/12/06 08:16:35;;;;;;;114.85;39.88;;;;;;;;;;4822267;29;20077;-68
2020/12/06 08:19:02;;;;;;;94.50;37.40;;;;;;;;;;4821809;29;20046;-68
2020/12/06 08:21:42;;;;;;;99.85;39.88;;;;;;;;;;4822513;29;20392;-67
2020/12/06 08:24:18;;;;;;;105.50;39.80;;;;;;;;;;4820899;29;20047;-68
2020/12/06 08:26:45;;;;;;;101.25;38.65;;;;;;;;;;4821225;29;20042;-68
2020/12/06 08:29:11;;;;;;;126.05;40.85;;;;;;;;;;4822613;29;20046;-68
2020/12/06 08:31:37;;;;;;;115.55;40.10;;;;;;;;;;4821753;29;20085;-68
2020/12/06 08:34:10;;;;;;;111.90;42.00;;;;;;;;;;4821121;29;20054;-68
2020/12/06 08:36:37;;;;;;;113.05;43.40;;;;;;;;;;4816555;29;20054;-68
2020/12/06 08:39:19;;;;;;;110.45;42.55;;;;;;;;;;4818115;29;20046;-68
2020/12/06 08:41:46;;;;;;;120.72;42.92;;;;;;;;;;4817774;29;20054;-68
2020/12/06 08:44:13;;;;;;;117.78;44.15;;;;;;;;;;4821099;29;20042;-68
2020/12/06 08:46:49;;;;;;;123.28;44.92;;;;;;;;;;4821221;29;20432;-68
2020/12/06 08:49:16;;;;;;;123.25;47.20;;;;;;;;;;4822205;29;20054;-68
2020/12/06 08:51:47;;;;;;;98.65;33.58;;;;;;;;;;4821418;29;20419;-68
2020/12/06 08:54:13;;;;;;;120.82;44.45;;;;;;;;;;4820883;29;20057;-68
2020/12/06 08:56:40;;;;;;;120.97;45.53;;;;;;;;;;4821688;29;20051;-68
2020/12/06 08:59:07;;;;;;;119.85;48.40;;;;;;;;;;4818281;29;20047;-68
2020/12/06 09:01:34;;;;;;;128.15;48.45;;;;;;;;;;4817062;29;20050;-68
2020/12/06 09:04:00;;;;;;;;;;;;;;;;;;4820558;29;20449;-68
2020/12/06 09:06:27;;;;;;;134.23;46.50;;;;;;;;;;4820221;29;19934;-68
2020/12/06 09:08:53;;;;;;;121.82;46.00;;;;;;;;;;4820319;29;20642;-68
2020/12/06 09:11:20;;;;;;;126.60;45.38;;;;;;;;;;4820120;29;20050;-68
2020/12/06 09:13:47;;;;;;;112.82;41.20;;;;;;;;;;4820375;29;20057;-68
2020/12/06 09:16:13;;;;;;;119.60;44.08;;;;;;;;;;4817047;29;20060;-68
2020/12/06 09:18:39;;;;;;;125.90;45.35;;;;;;;;;;4818971;29;20099;-68
2020/12/06 09:21:06;;;;;;;120.78;44.47;;;;;;;;;;4818636;29;20054;-68
2020/12/06 09:23:33;;;;;;;112.57;45.30;;;;;;;;;;4818477;29;20057;-68
2020/12/06 09:26:03;;;;;;;107.07;40.45;;;;;;;;;;4815350;29;20061;-68
2020/12/06 09:28:29;;;;;;;106.00;43.17;;;;;;;;;;4817173;29;20074;-68
2020/12/06 09:30:55;;;;;;;116.50;43.85;;;;;;;;;;4818638;29;20503;-67
2020/12/06 09:33:22;;;;;;;116.72;44.78;;;;;;;;;;4818924;29;20053;-68
2020/12/06 09:35:48;;;;;;;113.18;44.47;;;;;;;;;;4818213;29;20042;-68
2020/12/06 09:38:14;;;;;;;115.28;44.42;;;;;;;;;;4817877;29;20054;-68
2020/12/06 09:40:41;;;;;;;108.75;43.58;;;;;;;;;;4817808;29;20052;-68
2020/12/06 09:43:07;;;;;;;102.45;41.65;;;;;;;;;;4816718;29;20061;-69
2020/12/06 09:45:33;;;;;;;104.65;42.20;;;;;;;;;;4816459;29;20164;-68
2020/12/06 09:47:59;;;;;;;110.68;44.20;;;;;;;;;;4814482;29;20058;-67
2020/12/06 09:50:26;;;;;;;110.72;42.42;;;;;;;;;;4817761;29;20051;-68
2020/12/06 09:52:52;;;;;;;114.22;46.08;;;;;;;;;;4814414;29;20125;-68
2020/12/06 09:55:22;;;;;;;106.55;43.33;;;;;;;;;;4820446;29;20050;-68
2020/12/06 09:57:48;;;;;;;117.93;45.58;;;;;;;;;;4821915;29;20120;-68
2020/12/06 10:00:14;;;;;;;111.45;45.30;;;;;;;;;;4822638;29;20106;-68
2020/12/06 10:02:41;;;;;;;111.15;45.70;;;;;;;;;;4823284;29;20050;-68
2020/12/06 10:05:07;;;;;;;108.88;44.38;;;;;;;;;;4822678;29;20320;-68
2020/12/06 10:07:33;;;;;;;108.05;45.10;;;;;;;;;;4818745;29;20051;-67
2020/12/06 10:09:59;;;;;;;114.00;44.15;;;;;;;;;;4825977;29;20351;-68
2020/12/06 10:12:25;;;;;;;116.57;46.00;;;;;;;;;;4822226;29;20111;-68
2020/12/06 10:14:52;;;;;;;119.17;48.53;;;;;;;;;;4822971;29;20531;-68
2020/12/06 10:17:18;;;;;;;120.05;49.15;;;;;;;;;;4826015;29;20047;-68
2020/12/06 10:19:44;;;;;;;112.10;45.20;;;;;;;;;;4822093;29;20185;-68
2020/12/06 10:22:10;;;;;;;111.25;45.47;;;;;;;;;;4822656;29;20061;-68
2020/12/06 10:24:37;;;;;;;116.72;47.13;;;;;;;;;;4825409;29;20086;-68
2020/12/06 10:27:03;;;;;;;109.43;47.20;;;;;;;;;;4825034;29;20046;-68
2020/12/06 10:29:30;;;;;;;118.13;47.10;;;;;;;;;;4826374;29;20103;-67
2020/12/06 10:31:58;;;;;;;119.78;50.05;;;;;;;;;;4826583;29;20051;-68
2020/12/06 10:34:26;;;;;;;113.25;48.00;;;;;;;;;;4825327;29;20478;-68
2020/12/06 10:36:53;;;;;;;121.50;47.53;;;;;;;;;;4825072;29;20050;-68
2020/12/06 10:39:22;;;;;;;115.97;47.03;;;;;;;;;;4826954;29;20673;-68
2020/12/06 10:41:53;;;;;;;114.63;48.65;;;;;;;;;;4822036;29;20529;-68
2020/12/06 10:44:20;;;;;;;112.55;47.72;;;;;;;;;;4822006;29;20130;-68
2020/12/06 10:46:47;;;;;;;107.27;45.13;;;;;;;;;;4821924;29;20046;-68
2020/12/06 10:49:13;;;;;;;110.45;46.45;;;;;;;;;;4822029;29;20077;-68
2020/12/06 10:51:43;;;;;;;107.40;46.37;;;;;;;;;;4823937;29;20058;-68
2020/12/06 10:54:09;;;;;;;109.38;45.42;;;;;;;;;;4825352;29;20310;-69
2020/12/06 10:56:36;;;;;;;107.22;46.35;;;;;;;;;;4827239;29;20061;-69
2020/12/06 10:59:02;;;;;;;80.25;35.42;;;;;;;;;;4825656;29;20141;-68
2020/12/06 11:01:29;;;;;;;97.03;44.80;;;;;;;;;;4824373;29;20042;-68
2020/12/06 11:03:56;;;;;;;106.43;46.58;;;;;;;;;;4823963;29;20038;-68
2020/12/06 11:06:22;;;;;;;98.40;46.03;;;;;;;;;;4823670;29;20574;-68
2020/12/06 11:08:49;;;;;;;98.45;44.85;;;;;;;;;;4822946;29;20526;-68
2020/12/06 11:11:15;;;;;;;108.03;47.88;;;;;;;;;;4823821;29;20057;-68
2020/12/06 11:13:42;;;;;;;95.70;44.45;;;;;;;;;;4822393;29;20057;-68
2020/12/06 11:16:09;;;;;;;97.38;44.72;;;;;;;;;;4822539;29;20069;-68
2020/12/06 11:18:35;;;;;;;100.63;46.42;;;;;;;;;;4823620;29;20047;-68
2020/12/06 11:21:01;;;;;;;94.65;43.88;;;;;;;;;;4821223;29;20042;-68
2020/12/06 11:23:28;;;;;;;90.43;44.78;;;;;;;;;;4822623;29;20038;-68
2020/12/06 11:25:56;;;;;;;97.75;43.72;;;;;;;;;;4827230;29;20414;-69
2020/12/06 11:28:22;;;;;;;96.68;44.28;;;;;;;;;;4826013;29;20053;-68
2020/12/06 11:30:48;;;;;;;92.13;45.45;;;;;;;;;;4821495;29;20524;-68
2020/12/06 11:33:15;;;;;;;92.20;43.20;;;;;;;;;;4821411;29;20053;-68
2020/12/06 11:35:41;;;;;;;90.05;43.13;;;;;;;;;;4822187;29;20046;-68
2020/12/06 11:38:07;;;;;;;89.78;44.20;;;;;;;;;;4823230;29;20057;-68
2020/12/06 11:40:34;;;;;;;93.57;43.40;;;;;;;;;;4822330;29;20051;-68
2020/12/06 11:43:01;;;;;;;93.82;43.40;;;;;;;;;;4822519;29;20056;-68
2020/12/06 11:45:27;;;;;;;87.75;42.58;;;;;;;;;;4821912;29;20057;-68
2020/12/06 11:47:53;;;;;;;86.38;44.45;;;;;;;;;;4822529;29;20050;-68
2020/12/06 11:50:19;;;;;;;94.25;45.75;;;;;;;;;;4821114;29;20566;-68
2020/12/06 11:52:45;;;;;;;86.65;42.97;;;;;;;;;;4822682;29;20107;-68
2020/12/06 11:55:11;;;;;;;87.18;42.70;;;;;;;;;;4822869;29;20574;-68
2020/12/06 11:57:38;;;;;;;93.25;43.92;;;;;;;;;;4821842;29;20058;-68
2020/12/06 12:00:05;;;;;;;89.45;42.92;;;;;;;;;;4822917;29;20061;-68
2020/12/06 12:02:40;;;;;;;84.72;41.80;;;;;;;;;;4821353;29;20054;-69
2020/12/06 12:05:09;;;;;;;84.32;42.30;;;;;;;;;;4821742;29;20058;-68
2020/12/06 12:07:35;;;;;;;88.22;43.42;;;;;;;;;;4821187;29;20057;-69
2020/12/06 12:10:02;;;;;;;87.97;42.22;;;;;;;;;;4820612;29;20067;-68
2020/12/06 12:12:28;;;;;;;83.00;45.65;;;;;;;;;;4823987;29;20069;-68
2020/12/06 12:14:55;;;;;;;83.15;42.35;;;;;;;;;;4822629;29;20050;-68
2020/12/06 12:17:22;;;;;;;85.72;43.03;;;;;;;;;;4821636;29;20539;-68
2020/12/06 12:19:48;;;;;;;87.65;44.10;;;;;;;;;;4817665;29;20057;-68
2020/12/06 12:22:14;;;;;;;88.70;46.00;;;;;;;;;;4822684;29;20042;-68
2020/12/06 12:24:40;;;;;;;97.38;48.22;;;;;;;;;;4822227;29;20148;-68
2020/12/06 12:27:06;;;;;;;92.35;47.58;;;;;;;;;;4823727;29;20045;-68
2020/12/06 12:29:32;;;;;;;95.10;45.92;;;;;;;;;;4821922;29;20046;-69
2020/12/06 12:31:59;;;;;;;68.13;32.83;;;;;;;;;;4818558;29;20487;-68
2020/12/06 12:34:25;;;;;;;88.40;44.47;;;;;;;;;;4819826;29;20299;-68
2020/12/06 12:36:51;;;;;;;87.40;44.13;;;;;;;;;;4821968;29;20046;-68
2020/12/06 12:39:17;;;;;;;87.97;43.97;;;;;;;;;;4821021;29;20046;-68
2020/12/06 12:41:43;;;;;;;81.53;43.47;;;;;;;;;;4822284;29;20043;-68
2020/12/06 12:44:10;;;;;;;88.13;43.63;;;;;;;;;;4821106;29;20050;-68
2020/12/06 12:46:36;;;;;;;80.93;40.15;;;;;;;;;;4822043;29;20053;-68
2020/12/06 12:49:03;;;;;;;82.72;43.65;;;;;;;;;;4822373;29;20050;-68
2020/12/06 12:51:29;;;;;;;77.85;41.63;;;;;;;;;;4821255;29;20117;-68
2020/12/06 12:53:59;;;;;;;68.32;34.22;;;;;;;;;;4821859;29;20042;-68
2020/12/06 12:56:25;;;;;;;82.82;42.15;;;;;;;;;;4822926;29;20065;-68
2020/12/06 12:58:51;;;;;;;78.95;43.65;;;;;;;;;;4821142;29;20058;-68
2020/12/06 13:01:21;;;;;;;77.47;42.03;;;;;;;;;;4820991;29;20456;-68
2020/12/06 13:03:47;;;;;;;87.07;41.53;;;;;;;;;;4822031;29;20054;-68
2020/12/06 13:06:13;;;;;;;82.57;43.05;;;;;;;;;;4821495;29;20053;-68
2020/12/06 13:08:40;;;;;;;82.78;42.00;;;;;;;;;;4819685;29;20096;-68
2020/12/06 13:11:06;;;;;;;84.97;44.33;;;;;;;;;;4822493;29;20043;-68
2020/12/06 13:13:32;;;;;;;77.30;41.13;;;;;;;;;;4820967;29;20087;-68
2020/12/06 13:15:58;;;;;;;80.90;41.72;;;;;;;;;;4822086;29;20417;-68
2020/12/06 13:18:24;;;;;;;86.22;45.20;;;;;;;;;;4821825;29;20472;-68
2020/12/06 13:20:50;;;;;;;80.63;42.25;;;;;;;;;;4823774;29;20043;-68
2020/12/06 13:23:18;;;;;;;82.63;42.80;;;;;;;;;;4822082;29;20062;-68
2020/12/06 13:25:46;;;;;;;85.95;43.58;;;;;;;;;;4821497;29;20345;-68
2020/12/06 13:28:12;;;;;;;83.63;43.23;;;;;;;;;;4820334;29;22317;-67
2020/12/06 13:30:38;;;;;;;75.72;39.97;;;;;;;;;;4819111;29;20299;-68
2020/12/06 13:33:05;;;;;;;85.65;41.78;;;;;;;;;;4820484;29;20050;-68
2020/12/06 13:35:31;;;;;;;82.13;44.20;;;;;;;;;;4819946;29;20052;-68
2020/12/06 13:37:57;;;;;;;83.57;42.92;;;;;;;;;;4820274;29;20064;-68
2020/12/06 13:40:23;;;;;;;87.22;41.95;;;;;;;;;;4820859;29;20486;-68
2020/12/06 13:42:50;;;;;;;81.40;42.22;;;;;;;;;;4820411;29;20054;-68
2020/12/06 13:45:16;;;;;;;76.23;38.87;;;;;;;;;;4820351;29;20076;-68
2020/12/06 13:47:42;;;;;;;78.85;41.33;;;;;;;;;;4818209;29;20499;-68
2020/12/06 13:50:10;;;;;;;79.37;41.60;;;;;;;;;;4821976;29;20129;-68
2020/12/06 13:52:36;;;;;;;78.13;40.27;;;;;;;;;;4818656;29;20043;-68
2020/12/06 13:55:02;;;;;;;81.93;41.78;;;;;;;;;;4819249;29;20360;-68
2020/12/06 13:57:29;;;;;;;82.95;41.35;;;;;;;;;;4823904;29;20410;-68
2020/12/06 13:59:55;;;;;;;85.68;42.05;;;;;;;;;;4816963;29;20068;-68
2020/12/06 14:02:22;;;;;;;82.18;38.22;;;;;;;;;;4820020;29;20058;-68
2020/12/06 14:04:48;;;;;;;77.47;37.63;;;;;;;;;;4820366;29;20491;-68
2020/12/06 14:07:14;;;;;;;85.57;41.08;;;;;;;;;;4823735;29;20519;-68
2020/12/06 14:09:41;;;;;;;79.57;40.58;;;;;;;;;;4820754;29;20047;-68
2020/12/06 14:12:07;;;;;;;77.45;38.70;;;;;;;;;;4817402;29;20046;-68
2020/12/06 14:14:34;;;;;;;83.15;41.35;;;;;;;;;;4821402;29;20057;-68
2020/12/06 14:17:01;;;;;;;83.00;40.67;;;;;;;;;;4817965;29;20166;-67